PFJ weather

Patreksfjörður Airport
Patreksfjörður, Westfjords, Iceland

Public forecast

Using degrees Celsius for public forecast. Weather courtesy of forecast.io.

METAR (pilot weather report)

Report is more than 6 hours old.

Closest report is Bildudalur Airport, 11.6 nm (21.5 km) ENE. Retrieved 2019/04/24 17:40 UTC (14 hours ago):

BIBD 241740Z 05003KT 9999 SCT025 OVC035 06/04 Q1000

TAF (pilot weather forecast)

Closest forecast is Reykjavik Airport, 100.0 nm (185.2 km) SSE. Retrieved 2019/04/25 06:18 UTC (1 hour ago):

TAF BIRK 250416Z 2506/2606 12016KT 9999 SCT020 BKN070 TX14/2515Z TN08/2600Z BECMG 2515/2518 12006KT FEW035 BECMG 2519/2521 BKN022 BECMG 2522/2600 11016KT 5000 RADZ BR SCT010 OVC020 BECMG 2604/2606 9999 NSW FEW020 BKN040